sensor_id;sensor_type;location;lat;lon;timestamp;P1;durP1;ratioP1;P2;durP2;ratioP2
26271;SDS011;13997;48.902;12.472;2022-10-31T00:00:19;20.92;;;7.00;;
26271;SDS011;13997;48.902;12.472;2022-10-31T00:02:45;22.85;;;7.57;;
26271;SDS011;13997;48.902;12.472;2022-10-31T00:05:11;16.42;;;7.45;;
26271;SDS011;13997;48.902;12.472;2022-10-31T00:07:36;13.80;;;6.90;;
26271;SDS011;13997;48.902;12.472;2022-10-31T00:10:02;13.90;;;6.97;;
26271;SDS011;13997;48.902;12.472;2022-10-31T00:12:28;11.38;;;7.38;;
26271;SDS011;13997;48.902;12.472;2022-10-31T00:14:53;19.75;;;7.47;;
26271;SDS011;13997;48.902;12.472;2022-10-31T00:17:19;11.35;;;6.60;;
26271;SDS011;13997;48.902;12.472;2022-10-31T00:19:45;17.17;;;6.63;;
26271;SDS011;13997;48.902;12.472;2022-10-31T00:22:10;13.32;;;7.03;;
26271;SDS011;13997;48.902;12.472;2022-10-31T00:24:36;10.65;;;6.47;;
26271;SDS011;13997;48.902;12.472;2022-10-31T00:27:01;12.77;;;6.45;;
26271;SDS011;13997;48.902;12.472;2022-10-31T00:29:27;15.77;;;6.70;;
26271;SDS011;13997;48.902;12.472;2022-10-31T00:31:52;18.20;;;7.13;;
26271;SDS011;13997;48.902;12.472;2022-10-31T00:34:18;14.25;;;7.18;;
26271;SDS011;13997;48.902;12.472;2022-10-31T00:36:43;17.70;;;7.07;;
26271;SDS011;13997;48.902;12.472;2022-10-31T00:39:09;16.13;;;7.20;;
26271;SDS011;13997;48.902;12.472;2022-10-31T00:41:35;16.15;;;7.18;;
26271;SDS011;13997;48.902;12.472;2022-10-31T00:44:00;13.18;;;7.47;;
26271;SDS011;13997;48.902;12.472;2022-10-31T00:46:26;13.82;;;6.22;;
26271;SDS011;13997;48.902;12.472;2022-10-31T00:48:52;13.25;;;6.57;;
26271;SDS011;13997;48.902;12.472;2022-10-31T00:51:18;14.05;;;6.53;;
26271;SDS011;13997;48.902;12.472;2022-10-31T00:53:44;12.77;;;6.30;;
26271;SDS011;13997;48.902;12.472;2022-10-31T00:56:09;14.10;;;6.85;;
26271;SDS011;13997;48.902;12.472;2022-10-31T00:58:35;13.48;;;7.57;;
26271;SDS011;13997;48.902;12.472;2022-10-31T01:01:01;19.17;;;7.63;;
26271;SDS011;13997;48.902;12.472;2022-10-31T01:03:27;18.63;;;7.47;;
26271;SDS011;13997;48.902;12.472;2022-10-31T01:05:55;16.85;;;7.80;;
26271;SDS011;13997;48.902;12.472;2022-10-31T01:08:24;24.02;;;8.05;;
26271;SDS011;13997;48.902;12.472;2022-10-31T01:11:00;21.33;;;8.80;;
26271;SDS011;13997;48.902;12.472;2022-10-31T01:13:28;25.77;;;8.85;;
26271;SDS011;13997;48.902;12.472;2022-10-31T01:15:57;29.52;;;9.82;;
26271;SDS011;13997;48.902;12.472;2022-10-31T01:18:23;36.60;;;10.15;;
26271;SDS011;13997;48.902;12.472;2022-10-31T01:23:41;28.08;;;9.65;;
26271;SDS011;13997;48.902;12.472;2022-10-31T01:28:38;22.17;;;8.57;;
26271;SDS011;13997;48.902;12.472;2022-10-31T01:31:08;18.92;;;7.72;;
26271;SDS011;13997;48.902;12.472;2022-10-31T01:33:34;16.52;;;7.78;;
26271;SDS011;13997;48.902;12.472;2022-10-31T01:36:00;22.67;;;6.85;;
26271;SDS011;13997;48.902;12.472;2022-10-31T01:38:26;17.23;;;7.18;;
26271;SDS011;13997;48.902;12.472;2022-10-31T01:40:52;11.55;;;6.60;;
26271;SDS011;13997;48.902;12.472;2022-10-31T01:43:18;16.60;;;7.13;;
26271;SDS011;13997;48.902;12.472;2022-10-31T01:45:46;13.90;;;7.20;;
26271;SDS011;13997;48.902;12.472;2022-10-31T01:48:16;10.48;;;6.22;;
26271;SDS011;13997;48.902;12.472;2022-10-31T01:50:44;12.20;;;6.63;;
26271;SDS011;13997;48.902;12.472;2022-10-31T01:53:13;16.20;;;7.25;;
26271;SDS011;13997;48.902;12.472;2022-10-31T01:55:41;12.52;;;7.40;;
26271;SDS011;13997;48.902;12.472;2022-10-31T01:58:13;16.33;;;7.63;;
26271;SDS011;13997;48.902;12.472;2022-10-31T02:00:41;20.13;;;7.15;;
26271;SDS011;13997;48.902;12.472;2022-10-31T02:03:10;12.98;;;6.65;;
26271;SDS011;13997;48.902;12.472;2022-10-31T02:05:36;17.75;;;6.53;;
26271;SDS011;13997;48.902;12.472;2022-10-31T02:08:07;12.18;;;6.30;;
26271;SDS011;13997;48.902;12.472;2022-10-31T02:10:46;10.45;;;6.07;;
26271;SDS011;13997;48.902;12.472;2022-10-31T02:13:12;14.20;;;7.15;;
26271;SDS011;13997;48.902;12.472;2022-10-31T02:15:38;13.43;;;7.40;;
26271;SDS011;13997;48.902;12.472;2022-10-31T02:18:05;14.05;;;7.10;;
26271;SDS011;13997;48.902;12.472;2022-10-31T02:20:33;15.93;;;8.10;;
26271;SDS011;13997;48.902;12.472;2022-10-31T02:29:21;17.02;;;7.78;;
26271;SDS011;13997;48.902;12.472;2022-10-31T02:32:08;16.40;;;7.63;;
26271;SDS011;13997;48.902;12.472;2022-10-31T02:35:17;18.00;;;7.25;;
26271;SDS011;13997;48.902;12.472;2022-10-31T02:40:33;20.75;;;7.80;;
26271;SDS011;13997;48.902;12.472;2022-10-31T02:48:18;13.70;;;7.25;;
26271;SDS011;13997;48.902;12.472;2022-10-31T02:50:50;14.02;;;7.68;;
26271;SDS011;13997;48.902;12.472;2022-10-31T02:53:20;13.02;;;6.53;;
26271;SDS011;13997;48.902;12.472;2022-10-31T02:55:47;11.98;;;6.70;;
26271;SDS011;13997;48.902;12.472;2022-10-31T02:58:24;16.98;;;7.30;;
26271;SDS011;13997;48.902;12.472;2022-10-31T03:01:37;12.97;;;6.10;;
26271;SDS011;13997;48.902;12.472;2022-10-31T03:06:45;10.23;;;6.03;;
26271;SDS011;13997;48.902;12.472;2022-10-31T03:11:57;12.38;;;6.22;;
26271;SDS011;13997;48.902;12.472;2022-10-31T03:14:43;10.65;;;6.45;;
26271;SDS011;13997;48.902;12.472;2022-10-31T03:20:13;10.45;;;5.50;;
26271;SDS011;13997;48.902;12.472;2022-10-31T03:22:44;10.27;;;5.45;;
26271;SDS011;13997;48.902;12.472;2022-10-31T03:25:11;9.10;;;5.80;;
26271;SDS011;13997;48.902;12.472;2022-10-31T03:27:38;10.38;;;5.88;;
26271;SDS011;13997;48.902;12.472;2022-10-31T03:30:07;11.02;;;5.95;;
26271;SDS011;13997;48.902;12.472;2022-10-31T03:32:35;10.73;;;6.50;;
26271;SDS011;13997;48.902;12.472;2022-10-31T03:35:07;15.38;;;5.85;;
26271;SDS011;13997;48.902;12.472;2022-10-31T03:37:35;10.32;;;6.03;;
26271;SDS011;13997;48.902;12.472;2022-10-31T03:40:02;15.75;;;5.68;;
26271;SDS011;13997;48.902;12.472;2022-10-31T03:42:33;15.82;;;5.10;;
26271;SDS011;13997;48.902;12.472;2022-10-31T03:45:13;11.98;;;5.97;;
26271;SDS011;13997;48.902;12.472;2022-10-31T03:47:46;10.35;;;6.47;;
26271;SDS011;13997;48.902;12.472;2022-10-31T03:50:13;27.80;;;6.63;;
26271;SDS011;13997;48.902;12.472;2022-10-31T03:52:50;14.90;;;6.05;;
26271;SDS011;13997;48.902;12.472;2022-10-31T03:55:28;25.63;;;6.70;;
26271;SDS011;13997;48.902;12.472;2022-10-31T03:58:06;11.45;;;6.50;;
26271;SDS011;13997;48.902;12.472;2022-10-31T04:00:35;10.20;;;6.60;;
26271;SDS011;13997;48.902;12.472;2022-10-31T04:03:15;8.70;;;6.20;;
26271;SDS011;13997;48.902;12.472;2022-10-31T04:05:46;10.43;;;6.55;;
26271;SDS011;13997;48.902;12.472;2022-10-31T04:08:19;10.18;;;6.72;;
26271;SDS011;13997;48.902;12.472;2022-10-31T04:10:49;8.88;;;6.50;;
26271;SDS011;13997;48.902;12.472;2022-10-31T04:13:17;8.63;;;6.38;;
26271;SDS011;13997;48.902;12.472;2022-10-31T04:15:50;9.00;;;7.05;;
26271;SDS011;13997;48.902;12.472;2022-10-31T04:18:19;26.10;;;7.38;;
26271;SDS011;13997;48.902;12.472;2022-10-31T04:20:44;14.88;;;7.18;;
26271;SDS011;13997;48.902;12.472;2022-10-31T04:25:49;10.68;;;7.40;;
26271;SDS011;13997;48.902;12.472;2022-10-31T04:28:15;11.60;;;7.40;;
26271;SDS011;13997;48.902;12.472;2022-10-31T04:30:40;20.02;;;7.57;;
26271;SDS011;13997;48.902;12.472;2022-10-31T04:33:06;26.65;;;8.80;;
26271;SDS011;13997;48.902;12.472;2022-10-31T04:35:31;13.40;;;8.27;;
26271;SDS011;13997;48.902;12.472;2022-10-31T04:37:57;15.90;;;7.95;;
26271;SDS011;13997;48.902;12.472;2022-10-31T04:40:23;62.17;;;9.75;;
26271;SDS011;13997;48.902;12.472;2022-10-31T04:42:48;55.38;;;9.15;;
26271;SDS011;13997;48.902;12.472;2022-10-31T04:45:14;37.65;;;9.38;;
26271;SDS011;13997;48.902;12.472;2022-10-31T04:47:39;47.03;;;9.82;;
26271;SDS011;13997;48.902;12.472;2022-10-31T04:50:05;34.30;;;9.15;;
26271;SDS011;13997;48.902;12.472;2022-10-31T04:52:31;16.70;;;9.00;;
26271;SDS011;13997;48.902;12.472;2022-10-31T04:54:56;48.75;;;8.75;;
26271;SDS011;13997;48.902;12.472;2022-10-31T04:57:22;28.27;;;8.23;;
26271;SDS011;13997;48.902;12.472;2022-10-31T04:59:48;31.65;;;9.02;;
26271;SDS011;13997;48.902;12.472;2022-10-31T05:02:13;32.83;;;7.82;;
26271;SDS011;13997;48.902;12.472;2022-10-31T05:04:39;18.75;;;7.95;;
26271;SDS011;13997;48.902;12.472;2022-10-31T05:07:04;18.00;;;7.22;;
26271;SDS011;13997;48.902;12.472;2022-10-31T05:09:30;25.52;;;8.02;;
26271;SDS011;13997;48.902;12.472;2022-10-31T05:11:55;20.42;;;6.93;;
26271;SDS011;13997;48.902;12.472;2022-10-31T05:14:21;22.85;;;7.35;;
26271;SDS011;13997;48.902;12.472;2022-10-31T05:16:46;55.20;;;8.23;;
26271;SDS011;13997;48.902;12.472;2022-10-31T05:19:12;26.92;;;6.95;;
26271;SDS011;13997;48.902;12.472;2022-10-31T05:21:38;19.42;;;7.57;;
26271;SDS011;13997;48.902;12.472;2022-10-31T05:24:03;9.88;;;6.88;;
26271;SDS011;13997;48.902;12.472;2022-10-31T05:26:29;82.15;;;8.40;;
26271;SDS011;13997;48.902;12.472;2022-10-31T05:28:55;86.85;;;7.75;;
26271;SDS011;13997;48.902;12.472;2022-10-31T05:31:20;12.77;;;7.13;;
26271;SDS011;13997;48.902;12.472;2022-10-31T05:33:46;24.50;;;7.65;;
26271;SDS011;13997;48.902;12.472;2022-10-31T05:36:11;25.95;;;8.10;;
26271;SDS011;13997;48.902;12.472;2022-10-31T05:38:37;27.35;;;7.43;;
26271;SDS011;13997;48.902;12.472;2022-10-31T05:41:02;8.40;;;6.25;;
26271;SDS011;13997;48.902;12.472;2022-10-31T05:43:28;12.35;;;6.93;;
26271;SDS011;13997;48.902;12.472;2022-10-31T05:45:54;107.93;;;8.63;;
26271;SDS011;13997;48.902;12.472;2022-10-31T05:48:21;35.78;;;7.60;;
26271;SDS011;13997;48.902;12.472;2022-10-31T05:50:47;32.67;;;6.88;;
26271;SDS011;13997;48.902;12.472;2022-10-31T05:53:13;32.90;;;7.00;;
26271;SDS011;13997;48.902;12.472;2022-10-31T05:55:40;17.02;;;7.05;;
26271;SDS011;13997;48.902;12.472;2022-10-31T05:58:07;7.80;;;5.95;;
26271;SDS011;13997;48.902;12.472;2022-10-31T06:00:32;14.57;;;6.20;;
26271;SDS011;13997;48.902;12.472;2022-10-31T06:03:00;43.95;;;8.10;;
26271;SDS011;13997;48.902;12.472;2022-10-31T06:05:31;33.05;;;6.40;;
26271;SDS011;13997;48.902;12.472;2022-10-31T06:07:57;45.92;;;6.05;;
26271;SDS011;13997;48.902;12.472;2022-10-31T06:10:24;36.38;;;6.20;;
26271;SDS011;13997;48.902;12.472;2022-10-31T06:12:50;156.18;;;8.75;;
26271;SDS011;13997;48.902;12.472;2022-10-31T06:15:16;54.67;;;6.72;;
26271;SDS011;13997;48.902;12.472;2022-10-31T06:17:42;10.27;;;6.00;;
26271;SDS011;13997;48.902;12.472;2022-10-31T06:20:08;28.30;;;5.60;;
26271;SDS011;13997;48.902;12.472;2022-10-31T06:22:34;31.65;;;7.10;;
26271;SDS011;13997;48.902;12.472;2022-10-31T06:24:59;61.20;;;6.53;;
26271;SDS011;13997;48.902;12.472;2022-10-31T06:27:25;58.17;;;6.50;;
26271;SDS011;13997;48.902;12.472;2022-10-31T06:29:51;57.92;;;6.30;;
26271;SDS011;13997;48.902;12.472;2022-10-31T06:32:17;41.63;;;6.72;;
26271;SDS011;13997;48.902;12.472;2022-10-31T06:34:43;40.17;;;6.35;;
26271;SDS011;13997;48.902;12.472;2022-10-31T06:37:10;14.93;;;5.72;;
26271;SDS011;13997;48.902;12.472;2022-10-31T06:39:36;30.60;;;7.00;;
26271;SDS011;13997;48.902;12.472;2022-10-31T06:42:02;42.30;;;5.80;;
26271;SDS011;13997;48.902;12.472;2022-10-31T06:44:29;30.65;;;5.38;;
26271;SDS011;13997;48.902;12.472;2022-10-31T06:46:55;62.78;;;5.80;;
26271;SDS011;13997;48.902;12.472;2022-10-31T06:49:20;49.90;;;5.95;;
26271;SDS011;13997;48.902;12.472;2022-10-31T06:51:47;36.40;;;5.38;;
26271;SDS011;13997;48.902;12.472;2022-10-31T06:54:13;24.13;;;4.68;;
26271;SDS011;13997;48.902;12.472;2022-10-31T06:56:38;13.90;;;4.85;;
26271;SDS011;13997;48.902;12.472;2022-10-31T06:59:04;11.20;;;5.45;;
26271;SDS011;13997;48.902;12.472;2022-10-31T07:01:29;18.60;;;5.03;;
26271;SDS011;13997;48.902;12.472;2022-10-31T07:03:55;13.02;;;5.10;;
26271;SDS011;13997;48.902;12.472;2022-10-31T07:06:20;67.70;;;5.93;;
26271;SDS011;13997;48.902;12.472;2022-10-31T07:08:46;7.45;;;4.95;;
26271;SDS011;13997;48.902;12.472;2022-10-31T07:11:12;15.70;;;8.88;;
26271;SDS011;13997;48.902;12.472;2022-10-31T07:13:38;18.70;;;5.53;;
26271;SDS011;13997;48.902;12.472;2022-10-31T07:16:04;27.55;;;5.93;;
26271;SDS011;13997;48.902;12.472;2022-10-31T07:18:32;5.70;;;5.07;;
26271;SDS011;13997;48.902;12.472;2022-10-31T07:20:58;16.88;;;4.72;;
26271;SDS011;13997;48.902;12.472;2022-10-31T07:23:24;24.65;;;5.07;;
26271;SDS011;13997;48.902;12.472;2022-10-31T07:25:54;21.55;;;5.68;;
26271;SDS011;13997;48.902;12.472;2022-10-31T07:28:20;19.50;;;5.72;;
26271;SDS011;13997;48.902;12.472;2022-10-31T07:30:57;64.53;;;7.28;;
26271;SDS011;13997;48.902;12.472;2022-10-31T07:33:23;7.30;;;5.15;;
26271;SDS011;13997;48.902;12.472;2022-10-31T07:35:51;7.03;;;5.32;;
26271;SDS011;13997;48.902;12.472;2022-10-31T07:38:17;81.88;;;41.13;;
26271;SDS011;13997;48.902;12.472;2022-10-31T07:40:43;23.67;;;15.80;;
26271;SDS011;13997;48.902;12.472;2022-10-31T07:43:12;22.27;;;6.32;;
26271;SDS011;13997;48.902;12.472;2022-10-31T07:45:37;29.67;;;5.80;;
26271;SDS011;13997;48.902;12.472;2022-10-31T07:48:03;37.60;;;6.43;;
26271;SDS011;13997;48.902;12.472;2022-10-31T07:50:30;23.48;;;6.28;;
26271;SDS011;13997;48.902;12.472;2022-10-31T07:55:29;28.98;;;6.15;;
26271;SDS011;13997;48.902;12.472;2022-10-31T07:57:56;49.03;;;6.35;;
26271;SDS011;13997;48.902;12.472;2022-10-31T08:00:22;39.63;;;6.45;;
26271;SDS011;13997;48.902;12.472;2022-10-31T08:02:48;39.80;;;8.02;;
26271;SDS011;13997;48.902;12.472;2022-10-31T08:05:31;37.95;;;8.18;;
26271;SDS011;13997;48.902;12.472;2022-10-31T08:07:58;13.55;;;6.93;;
26271;SDS011;13997;48.902;12.472;2022-10-31T08:10:24;37.38;;;7.75;;
26271;SDS011;13997;48.902;12.472;2022-10-31T08:12:57;48.75;;;7.18;;
26271;SDS011;13997;48.902;12.472;2022-10-31T08:15:24;40.05;;;7.07;;
26271;SDS011;13997;48.902;12.472;2022-10-31T08:17:50;33.67;;;7.22;;
26271;SDS011;13997;48.902;12.472;2022-10-31T08:20:16;24.90;;;7.45;;
26271;SDS011;13997;48.902;12.472;2022-10-31T08:22:41;44.50;;;7.82;;
26271;SDS011;13997;48.902;12.472;2022-10-31T08:25:07;33.33;;;8.48;;
26271;SDS011;13997;48.902;12.472;2022-10-31T08:27:34;32.90;;;8.75;;
26271;SDS011;13997;48.902;12.472;2022-10-31T08:29:59;52.35;;;8.85;;
26271;SDS011;13997;48.902;12.472;2022-10-31T08:32:25;26.30;;;8.07;;
26271;SDS011;13997;48.902;12.472;2022-10-31T08:34:50;32.88;;;9.43;;
26271;SDS011;13997;48.902;12.472;2022-10-31T08:37:16;29.13;;;8.60;;
26271;SDS011;13997;48.902;12.472;2022-10-31T08:39:45;29.63;;;8.35;;
26271;SDS011;13997;48.902;12.472;2022-10-31T08:42:13;43.67;;;8.93;;
26271;SDS011;13997;48.902;12.472;2022-10-31T08:44:39;110.97;;;9.10;;
26271;SDS011;13997;48.902;12.472;2022-10-31T08:47:05;17.85;;;7.63;;
26271;SDS011;13997;48.902;12.472;2022-10-31T08:49:30;29.50;;;8.02;;
26271;SDS011;13997;48.902;12.472;2022-10-31T08:51:56;38.25;;;8.90;;
26271;SDS011;13997;48.902;12.472;2022-10-31T08:54:22;39.80;;;8.88;;
26271;SDS011;13997;48.902;12.472;2022-10-31T08:56:47;71.95;;;10.45;;
26271;SDS011;13997;48.902;12.472;2022-10-31T08:59:13;38.20;;;10.20;;
26271;SDS011;13997;48.902;12.472;2022-10-31T09:01:38;18.77;;;9.43;;
26271;SDS011;13997;48.902;12.472;2022-10-31T09:04:04;66.75;;;10.45;;
26271;SDS011;13997;48.902;12.472;2022-10-31T09:06:29;25.58;;;9.98;;
26271;SDS011;13997;48.902;12.472;2022-10-31T09:08:55;53.72;;;10.77;;
26271;SDS011;13997;48.902;12.472;2022-10-31T09:11:20;27.55;;;11.20;;
26271;SDS011;13997;48.902;12.472;2022-10-31T09:13:46;33.50;;;11.45;;
26271;SDS011;13997;48.902;12.472;2022-10-31T09:16:12;44.90;;;11.27;;
26271;SDS011;13997;48.902;12.472;2022-10-31T09:18:37;19.00;;;11.52;;
26271;SDS011;13997;48.902;12.472;2022-10-31T09:21:03;19.25;;;11.80;;
26271;SDS011;13997;48.902;12.472;2022-10-31T09:23:29;28.38;;;12.18;;
26271;SDS011;13997;48.902;12.472;2022-10-31T09:25:54;20.65;;;12.23;;
26271;SDS011;13997;48.902;12.472;2022-10-31T09:28:21;19.98;;;11.68;;
26271;SDS011;13997;48.902;12.472;2022-10-31T09:30:49;15.82;;;11.55;;
26271;SDS011;13997;48.902;12.472;2022-10-31T09:33:16;19.13;;;13.18;;
26271;SDS011;13997;48.902;12.472;2022-10-31T09:35:42;22.27;;;12.60;;
26271;SDS011;13997;48.902;12.472;2022-10-31T09:46:39;47.20;;;13.93;;
26271;SDS011;13997;48.902;12.472;2022-10-31T09:49:35;45.25;;;13.73;;
26271;SDS011;13997;48.902;12.472;2022-10-31T09:52:13;25.85;;;14.73;;
26271;SDS011;13997;48.902;12.472;2022-10-31T09:55:44;36.60;;;17.52;;
26271;SDS011;13997;48.902;12.472;2022-10-31T09:57:48;27.05;;;14.25;;
26271;SDS011;13997;48.902;12.472;2022-10-31T10:00:17;26.88;;;14.35;;
26271;SDS011;13997;48.902;12.472;2022-10-31T10:02:59;24.58;;;14.43;;
26271;SDS011;13997;48.902;12.472;2022-10-31T10:06:09;51.17;;;14.88;;
26271;SDS011;13997;48.902;12.472;2022-10-31T10:08:29;28.02;;;14.55;;
26271;SDS011;13997;48.902;12.472;2022-10-31T10:11:08;29.85;;;15.75;;
26271;SDS011;13997;48.902;12.472;2022-10-31T10:19:01;38.10;;;20.15;;
26271;SDS011;13997;48.902;12.472;2022-10-31T10:21:57;39.00;;;20.80;;
26271;SDS011;13997;48.902;12.472;2022-10-31T10:27:09;30.75;;;19.60;;
26271;SDS011;13997;48.902;12.472;2022-10-31T10:30:02;26.23;;;16.70;;
26271;SDS011;13997;48.902;12.472;2022-10-31T10:32:57;30.90;;;18.27;;
26271;SDS011;13997;48.902;12.472;2022-10-31T10:35:24;67.38;;;19.23;;
26271;SDS011;13997;48.902;12.472;2022-10-31T10:37:58;168.13;;;20.92;;
26271;SDS011;13997;48.902;12.472;2022-10-31T10:40:28;28.80;;;19.85;;
26271;SDS011;13997;48.902;12.472;2022-10-31T10:45:53;34.45;;;20.10;;
26271;SDS011;13997;48.902;12.472;2022-10-31T10:51:45;41.90;;;25.05;;
26271;SDS011;13997;48.902;12.472;2022-10-31T10:54:15;36.28;;;22.25;;
26271;SDS011;13997;48.902;12.472;2022-10-31T10:59:31;37.95;;;24.83;;
26271;SDS011;13997;48.902;12.472;2022-10-31T11:01:56;39.72;;;23.88;;
26271;SDS011;13997;48.902;12.472;2022-10-31T11:04:34;36.33;;;23.02;;
26271;SDS011;13997;48.902;12.472;2022-10-31T11:07:04;34.55;;;21.15;;
26271;SDS011;13997;48.902;12.472;2022-10-31T11:09:32;63.90;;;23.70;;
26271;SDS011;13997;48.902;12.472;2022-10-31T11:11:59;42.70;;;25.08;;
26271;SDS011;13997;48.902;12.472;2022-10-31T11:14:30;42.20;;;24.63;;
26271;SDS011;13997;48.902;12.472;2022-10-31T11:17:10;39.63;;;25.58;;
26271;SDS011;13997;48.902;12.472;2022-10-31T11:20:00;36.53;;;24.15;;
26271;SDS011;13997;48.902;12.472;2022-10-31T11:22:39;46.60;;;27.63;;
26271;SDS011;13997;48.902;12.472;2022-10-31T11:27:44;45.78;;;29.38;;
26271;SDS011;13997;48.902;12.472;2022-10-31T11:30:11;50.30;;;29.45;;
26271;SDS011;13997;48.902;12.472;2022-10-31T11:32:39;53.45;;;29.67;;
26271;SDS011;13997;48.902;12.472;2022-10-31T11:35:11;74.22;;;32.15;;
26271;SDS011;13997;48.902;12.472;2022-10-31T11:37:41;63.38;;;31.63;;
26271;SDS011;13997;48.902;12.472;2022-10-31T11:40:22;57.88;;;33.33;;
26271;SDS011;13997;48.902;12.472;2022-10-31T11:42:50;109.55;;;35.42;;
26271;SDS011;13997;48.902;12.472;2022-10-31T11:47:48;58.47;;;35.08;;
26271;SDS011;13997;48.902;12.472;2022-10-31T11:50:26;59.47;;;35.35;;
26271;SDS011;13997;48.902;12.472;2022-10-31T11:52:52;60.10;;;37.55;;
26271;SDS011;13997;48.902;12.472;2022-10-31T11:55:30;61.13;;;35.70;;
26271;SDS011;13997;48.902;12.472;2022-10-31T11:57:56;58.30;;;35.08;;
26271;SDS011;13997;48.902;12.472;2022-10-31T12:00:29;59.97;;;36.90;;
26271;SDS011;13997;48.902;12.472;2022-10-31T12:03:06;65.07;;;36.08;;
26271;SDS011;13997;48.902;12.472;2022-10-31T12:06:05;48.63;;;32.67;;
26271;SDS011;13997;48.902;12.472;2022-10-31T12:08:38;55.28;;;34.97;;
26271;SDS011;13997;48.902;12.472;2022-10-31T12:13:33;54.78;;;34.47;;
26271;SDS011;13997;48.902;12.472;2022-10-31T12:16:12;73.72;;;35.67;;
26271;SDS011;13997;48.902;12.472;2022-10-31T12:21:24;56.00;;;33.47;;
26271;SDS011;13997;48.902;12.472;2022-10-31T12:34:47;60.80;;;35.03;;
26271;SDS011;13997;48.902;12.472;2022-10-31T12:40:15;74.13;;;37.83;;
26271;SDS011;13997;48.902;12.472;2022-10-31T12:42:58;69.70;;;37.05;;
26271;SDS011;13997;48.902;12.472;2022-10-31T12:51:15;77.28;;;37.92;;
26271;SDS011;13997;48.902;12.472;2022-10-31T13:01:47;62.03;;;39.47;;
26271;SDS011;13997;48.902;12.472;2022-10-31T13:06:48;77.90;;;45.88;;
26271;SDS011;13997;48.902;12.472;2022-10-31T13:09:33;86.57;;;50.95;;
26271;SDS011;13997;48.902;12.472;2022-10-31T13:12:08;78.18;;;44.00;;
26271;SDS011;13997;48.902;12.472;2022-10-31T13:17:08;98.10;;;51.63;;
26271;SDS011;13997;48.902;12.472;2022-10-31T13:19:42;88.18;;;49.47;;
26271;SDS011;13997;48.902;12.472;2022-10-31T13:22:11;74.05;;;43.00;;
26271;SDS011;13997;48.902;12.472;2022-10-31T13:24:55;70.57;;;41.15;;
26271;SDS011;13997;48.902;12.472;2022-10-31T13:27:23;79.40;;;44.70;;
26271;SDS011;13997;48.902;12.472;2022-10-31T13:30:03;74.80;;;41.85;;
26271;SDS011;13997;48.902;12.472;2022-10-31T13:32:49;74.30;;;41.28;;
26271;SDS011;13997;48.902;12.472;2022-10-31T13:35:30;71.28;;;38.10;;
26271;SDS011;13997;48.902;12.472;2022-10-31T13:38:01;65.22;;;39.65;;
26271;SDS011;13997;48.902;12.472;2022-10-31T13:41:05;59.87;;;38.80;;
26271;SDS011;13997;48.902;12.472;2022-10-31T13:44:11;64.63;;;39.67;;
26271;SDS011;13997;48.902;12.472;2022-10-31T13:46:44;100.75;;;41.42;;
26271;SDS011;13997;48.902;12.472;2022-10-31T13:52:11;68.97;;;41.70;;
26271;SDS011;13997;48.902;12.472;2022-10-31T13:54:41;68.78;;;40.90;;
26271;SDS011;13997;48.902;12.472;2022-10-31T14:02:46;71.78;;;43.88;;
26271;SDS011;13997;48.902;12.472;2022-10-31T14:05:19;75.88;;;43.55;;
26271;SDS011;13997;48.902;12.472;2022-10-31T14:07:52;67.80;;;40.83;;
26271;SDS011;13997;48.902;12.472;2022-10-31T14:10:24;65.93;;;41.08;;
26271;SDS011;13997;48.902;12.472;2022-10-31T14:12:53;67.75;;;41.42;;
26271;SDS011;13997;48.902;12.472;2022-10-31T14:16:16;74.30;;;44.25;;
26271;SDS011;13997;48.902;12.472;2022-10-31T14:18:56;80.70;;;45.58;;
26271;SDS011;13997;48.902;12.472;2022-10-31T14:21:30;77.82;;;43.95;;
26271;SDS011;13997;48.902;12.472;2022-10-31T14:24:02;73.50;;;44.38;;
26271;SDS011;13997;48.902;12.472;2022-10-31T14:32:01;68.10;;;43.58;;
26271;SDS011;13997;48.902;12.472;2022-10-31T14:49:55;72.13;;;42.97;;
26271;SDS011;13997;48.902;12.472;2022-10-31T14:51:55;71.15;;;44.25;;
26271;SDS011;13997;48.902;12.472;2022-10-31T14:54:30;75.90;;;44.42;;
26271;SDS011;13997;48.902;12.472;2022-10-31T14:57:03;78.78;;;47.53;;
26271;SDS011;13997;48.902;12.472;2022-10-31T14:59:38;217.20;;;45.55;;
26271;SDS011;13997;48.902;12.472;2022-10-31T15:02:13;71.32;;;45.95;;
26271;SDS011;13997;48.902;12.472;2022-10-31T15:04:45;70.72;;;43.53;;
26271;SDS011;13997;48.902;12.472;2022-10-31T15:07:30;99.63;;;42.15;;
26271;SDS011;13997;48.902;12.472;2022-10-31T15:13:18;76.53;;;43.33;;
26271;SDS011;13997;48.902;12.472;2022-10-31T15:15:46;93.55;;;43.35;;
26271;SDS011;13997;48.902;12.472;2022-10-31T15:18:15;68.22;;;42.38;;
26271;SDS011;13997;48.902;12.472;2022-10-31T15:20:43;71.20;;;44.88;;
26271;SDS011;13997;48.902;12.472;2022-10-31T15:23:11;59.75;;;39.75;;
26271;SDS011;13997;48.902;12.472;2022-10-31T15:26:02;57.80;;;37.65;;
26271;SDS011;13997;48.902;12.472;2022-10-31T15:28:30;59.15;;;38.00;;
26271;SDS011;13997;48.902;12.472;2022-10-31T15:30:57;60.17;;;38.95;;
26271;SDS011;13997;48.902;12.472;2022-10-31T15:33:28;56.15;;;38.10;;
26271;SDS011;13997;48.902;12.472;2022-10-31T15:36:04;63.60;;;41.00;;
26271;SDS011;13997;48.902;12.472;2022-10-31T15:38:30;68.43;;;40.58;;
26271;SDS011;13997;48.902;12.472;2022-10-31T15:41:06;72.90;;;39.20;;
26271;SDS011;13997;48.902;12.472;2022-10-31T15:43:52;98.07;;;38.17;;
26271;SDS011;13997;48.902;12.472;2022-10-31T15:46:20;82.85;;;38.33;;
26271;SDS011;13997;48.902;12.472;2022-10-31T15:48:46;61.03;;;39.58;;
26271;SDS011;13997;48.902;12.472;2022-10-31T15:51:13;101.95;;;40.38;;
26271;SDS011;13997;48.902;12.472;2022-10-31T15:53:44;55.88;;;38.53;;
26271;SDS011;13997;48.902;12.472;2022-10-31T15:56:14;68.13;;;37.63;;
26271;SDS011;13997;48.902;12.472;2022-10-31T15:58:47;49.70;;;37.20;;
26271;SDS011;13997;48.902;12.472;2022-10-31T16:01:25;47.45;;;35.47;;
26271;SDS011;13997;48.902;12.472;2022-10-31T16:04:19;59.97;;;42.72;;
26271;SDS011;13997;48.902;12.472;2022-10-31T16:06:58;49.65;;;38.55;;
26271;SDS011;13997;48.902;12.472;2022-10-31T16:09:26;46.20;;;33.85;;
26271;SDS011;13997;48.902;12.472;2022-10-31T16:11:52;47.38;;;35.47;;
26271;SDS011;13997;48.902;12.472;2022-10-31T16:14:22;44.03;;;33.55;;
26271;SDS011;13997;48.902;12.472;2022-10-31T16:16:53;37.80;;;30.85;;
26271;SDS011;13997;48.902;12.472;2022-10-31T16:20:04;59.30;;;31.23;;
26271;SDS011;13997;48.902;12.472;2022-10-31T16:22:30;95.07;;;31.10;;
26271;SDS011;13997;48.902;12.472;2022-10-31T16:25:08;50.80;;;32.00;;
26271;SDS011;13997;48.902;12.472;2022-10-31T16:27:39;41.95;;;29.45;;
26271;SDS011;13997;48.902;12.472;2022-10-31T16:33:02;75.27;;;33.43;;
26271;SDS011;13997;48.902;12.472;2022-10-31T16:35:32;49.17;;;31.80;;
26271;SDS011;13997;48.902;12.472;2022-10-31T16:38:00;50.50;;;35.78;;
26271;SDS011;13997;48.902;12.472;2022-10-31T16:40:26;60.13;;;36.03;;
26271;SDS011;13997;48.902;12.472;2022-10-31T16:42:53;44.88;;;34.80;;
26271;SDS011;13997;48.902;12.472;2022-10-31T16:45:22;66.13;;;37.35;;
26271;SDS011;13997;48.902;12.472;2022-10-31T16:47:49;47.63;;;36.70;;
26271;SDS011;13997;48.902;12.472;2022-10-31T16:52:53;96.50;;;36.72;;